createdAt,value
2022-09-02T00:01:57.220Z,10.20
2022-09-02T00:04:28.363Z,10.90
2022-09-02T00:06:57.679Z,13.05
2022-09-02T00:09:28.256Z,10.13
2022-09-02T00:11:58.700Z,10.95
2022-09-02T00:14:32.167Z,10.77
2022-09-02T00:17:01.969Z,11.15
2022-09-02T00:19:32.691Z,10.13
2022-09-02T00:22:03.300Z,11.98
2022-09-02T00:24:33.070Z,11.95
2022-09-02T00:27:02.674Z,11.65
2022-09-02T00:29:32.332Z,11.63
2022-09-02T00:32:01.581Z,9.10
2022-09-02T00:34:30.916Z,9.82
2022-09-02T00:37:00.526Z,9.93
2022-09-02T00:39:30.201Z,9.30
2022-09-02T00:41:59.950Z,8.05
2022-09-02T00:44:29.473Z,10.13
2022-09-02T00:46:58.537Z,8.38
2022-09-02T00:49:34.398Z,9.63
2022-09-02T00:52:06.342Z,9.73
2022-09-02T00:55:00.300Z,9.52
2022-09-02T00:57:34.395Z,10.77
2022-09-02T01:00:10.297Z,12.10
2022-09-02T01:02:43.372Z,7.47
2022-09-02T01:05:16.560Z,7.97
2022-09-02T01:07:47.411Z,7.50
2022-09-02T01:10:21.335Z,8.35
2022-09-02T01:12:51.184Z,9.13
2022-09-02T01:15:20.571Z,6.97
2022-09-02T01:17:54.168Z,7.18
2022-09-02T01:20:27.397Z,7.45
2022-09-02T01:22:59.291Z,6.90
2022-09-02T01:25:32.189Z,7.00
2022-09-02T01:28:11.116Z,6.90
2022-09-02T01:30:44.744Z,5.85
2022-09-02T01:33:18.221Z,7.15
2022-09-02T01:38:19.406Z,9.40
2022-09-02T01:40:49.792Z,5.65
2022-09-02T01:43:23.778Z,6.05
2022-09-02T01:45:57.599Z,6.53
2022-09-02T01:48:27.557Z,6.15
2022-09-02T01:51:04.882Z,6.30
2022-09-02T01:53:35.309Z,5.55
2022-09-02T01:56:05.080Z,6.05
2022-09-02T01:58:34.515Z,5.18
2022-09-02T02:01:08.652Z,4.85
2022-09-02T02:03:39.971Z,5.65
2022-09-02T02:06:15.104Z,7.28
2022-09-02T02:08:45.515Z,7.13
2022-09-02T02:11:26.267Z,5.75
2022-09-02T02:13:55.892Z,4.65
2022-09-02T02:16:26.065Z,5.65
2022-09-02T02:18:55.783Z,4.72
2022-09-02T02:21:25.863Z,4.95
2022-09-02T02:23:55.681Z,4.55
2022-09-02T02:26:25.541Z,4.70
2022-09-02T02:28:55.223Z,4.38
2022-09-02T02:31:26.657Z,4.53
2022-09-02T02:33:56.074Z,4.68
2022-09-02T02:36:25.504Z,5.68
2022-09-02T02:38:55.808Z,4.90
2022-09-02T02:41:25.426Z,4.93
2022-09-02T02:43:54.835Z,5.28
2022-09-02T02:46:24.367Z,4.97
2022-09-02T02:48:53.696Z,4.90
2022-09-02T02:51:23.141Z,4.82
2022-09-02T02:53:58.860Z,4.50
2022-09-02T02:56:29.582Z,6.32
2022-09-02T02:59:02.516Z,5.35
2022-09-02T03:01:33.363Z,6.63
2022-09-02T03:04:02.828Z,5.20
2022-09-02T03:06:32.302Z,5.05
2022-09-02T03:41:21.956Z,3.80
2022-09-02T03:43:51.829Z,3.95
2022-09-02T03:46:21.745Z,2.83
2022-09-02T03:48:53.086Z,3.10
2022-09-02T03:51:23.678Z,2.67
2022-09-02T03:53:53.905Z,2.47
2022-09-02T03:56:29.696Z,2.25
2022-09-02T03:58:59.095Z,4.07
2022-09-02T04:01:33.669Z,4.35
2022-09-02T04:04:07.193Z,3.95
2022-09-02T04:06:36.722Z,3.40
2022-09-02T04:09:07.167Z,4.95
2022-09-02T04:11:38.297Z,5.20
2022-09-02T04:14:08.462Z,3.10
2022-09-02T04:16:41.349Z,2.70
2022-09-02T04:19:10.967Z,2.50
2022-09-02T04:21:42.355Z,3.13
2022-09-02T04:24:12.837Z,2.83
2022-09-02T04:26:46.285Z,3.70
2022-09-02T04:29:16.508Z,3.03
2022-09-02T04:31:49.073Z,2.95
2022-09-02T04:34:18.395Z,3.28
2022-09-02T04:36:49.759Z,3.45
2022-09-02T04:39:19.471Z,2.83
2022-09-02T04:41:48.932Z,2.90
2022-09-02T04:44:18.395Z,2.90
2022-09-02T04:46:48.156Z,3.38
2022-09-02T04:49:20.163Z,2.78
2022-09-02T04:51:49.564Z,2.90
2022-09-02T04:54:18.931Z,3.75
2022-09-02T04:56:48.046Z,3.40
2022-09-02T04:59:17.264Z,3.00
2022-09-02T05:01:46.443Z,2.60
2022-09-02T05:04:15.613Z,2.95
2022-09-02T05:06:44.887Z,2.95
2022-09-02T05:09:14.494Z,2.72
2022-09-02T05:11:43.777Z,2.85
2022-09-02T05:14:14.226Z,2.75
2022-09-02T05:16:43.950Z,2.80
2022-09-02T05:19:14.853Z,3.05
2022-09-02T05:21:45.844Z,2.80
2022-09-02T05:24:15.009Z,3.92
2022-09-02T05:26:45.770Z,2.92
2022-09-02T05:29:15.814Z,3.10
2022-09-02T05:31:44.847Z,2.55
2022-09-02T05:34:13.940Z,2.53
2022-09-02T05:36:43.089Z,2.30
2022-09-02T05:39:12.348Z,2.38
2022-09-02T05:41:43.124Z,2.40
2022-09-02T05:44:13.024Z,2.40
2022-09-02T05:46:45.563Z,2.35
2022-09-02T05:49:22.632Z,3.20
2022-09-02T05:51:55.192Z,3.40
2022-09-02T05:54:31.199Z,4.53
2022-09-02T05:57:03.887Z,3.40
2022-09-02T05:59:40.186Z,5.43
2022-09-02T06:02:11.579Z,5.75
2022-09-02T06:04:43.060Z,4.80
2022-09-02T06:07:13.817Z,4.97
2022-09-02T06:09:45.733Z,5.13
2022-09-02T06:12:17.391Z,5.85
2022-09-02T06:14:46.594Z,2.88
2022-09-02T06:17:16.070Z,2.85
2022-09-02T06:19:45.362Z,2.72
2022-09-02T06:22:14.509Z,2.65
2022-09-02T06:24:43.643Z,4.00
2022-09-02T06:27:12.760Z,2.90
2022-09-02T06:29:41.927Z,2.90
2022-09-02T06:32:11.112Z,3.80
2022-09-02T06:34:40.524Z,3.47
2022-09-02T06:37:09.832Z,3.15
2022-09-02T06:39:45.030Z,3.63
2022-09-02T06:42:14.362Z,3.17
2022-09-02T06:44:43.716Z,3.03
2022-09-02T06:47:13.010Z,3.33
2022-09-02T06:49:42.638Z,3.28
2022-09-02T06:52:14.909Z,3.13
2022-09-02T06:54:44.478Z,3.80
2022-09-02T06:57:16.880Z,2.75
2022-09-02T06:59:47.874Z,3.20
2022-09-02T07:05:05.116Z,3.10
2022-09-02T07:07:36.525Z,3.35
2022-09-02T07:10:08.415Z,3.92
2022-09-02T07:12:39.419Z,4.03
2022-09-02T07:15:09.422Z,4.10
2022-09-02T07:17:39.579Z,3.42
2022-09-02T07:20:10.049Z,4.45
2022-09-02T07:22:40.789Z,3.33
2022-09-02T07:25:11.811Z,3.95
2022-09-02T07:27:41.577Z,3.78
2022-09-02T07:30:12.478Z,3.10
2022-09-02T07:32:41.913Z,2.80
2022-09-02T07:35:11.573Z,3.40
2022-09-02T07:37:41.400Z,4.07
2022-09-02T07:40:12.599Z,3.35
2022-09-02T07:42:42.077Z,3.13
2022-09-02T07:45:12.640Z,2.97
2022-09-02T07:47:41.994Z,3.38
2022-09-02T07:50:18.493Z,3.63
2022-09-02T07:52:50.167Z,3.17
2022-09-02T07:55:19.681Z,3.42
2022-09-02T07:57:49.169Z,2.83
2022-09-02T08:00:22.295Z,3.33
2022-09-02T08:02:52.212Z,3.55
2022-09-02T08:05:22.190Z,2.92
2022-09-02T08:07:51.860Z,3.90
2022-09-02T08:10:21.886Z,3.55
2022-09-02T08:12:52.499Z,3.75
2022-09-02T08:15:22.190Z,3.42
2022-09-02T08:17:52.406Z,3.75
2022-09-02T08:20:21.839Z,3.33
2022-09-02T08:23:00.838Z,3.15
2022-09-02T08:25:42.150Z,2.90
2022-09-02T08:28:11.983Z,3.00
2022-09-02T08:30:41.777Z,3.67
2022-09-02T08:33:11.130Z,3.25
2022-09-02T08:35:41.048Z,3.30
2022-09-02T08:38:10.425Z,3.70
2022-09-02T08:40:43.726Z,3.80
2022-09-02T08:46:05.549Z,3.10
2022-09-02T08:48:55.292Z,4.57
2022-09-02T08:51:44.738Z,4.57
2022-09-02T08:54:36.867Z,4.70
2022-09-02T08:57:06.675Z,4.78
2022-09-02T08:59:37.358Z,4.00
2022-09-02T09:02:36.125Z,4.78
2022-09-02T09:05:11.495Z,5.28
2022-09-02T09:07:52.990Z,3.78
2022-09-02T09:10:22.646Z,5.05
2022-09-02T09:13:09.989Z,4.68
2022-09-02T09:15:52.179Z,4.82
2022-09-02T09:18:51.503Z,4.07
2022-09-02T09:24:38.427Z,4.03
2022-09-02T09:27:15.276Z,3.55
2022-09-02T09:29:48.896Z,3.17
2022-09-02T09:32:34.038Z,3.20
2022-09-02T09:35:15.820Z,2.90
2022-09-02T09:37:49.033Z,3.22
2022-09-02T09:40:27.334Z,3.00
2022-09-02T09:43:14.708Z,3.50
2022-09-02T09:45:47.433Z,3.38
2022-09-02T09:48:24.780Z,2.92
2022-09-02T09:51:00.031Z,2.75
2022-09-02T09:53:35.409Z,2.92
2022-09-02T09:56:20.798Z,3.00
2022-09-02T09:58:52.165Z,3.30
2022-09-02T10:01:30.311Z,3.88
2022-09-02T10:03:59.790Z,3.45
2022-09-02T10:06:32.188Z,3.53
2022-09-02T10:09:04.454Z,3.17
2022-09-02T10:11:39.155Z,3.75
2022-09-02T10:14:13.176Z,3.20
2022-09-02T10:17:00.616Z,3.90
2022-09-02T10:19:48.382Z,3.20
2022-09-02T10:22:49.928Z,4.07
2022-09-02T10:25:55.055Z,3.92
2022-09-02T10:28:47.595Z,3.85
2022-09-02T10:31:47.287Z,4.32
2022-09-02T10:34:41.274Z,4.03
2022-09-02T10:39:54.184Z,3.75
2022-09-02T10:42:26.583Z,3.88
2022-09-02T10:45:19.085Z,3.58
2022-09-02T10:48:26.317Z,3.97
2022-09-02T10:51:18.233Z,3.85
2022-09-02T10:54:26.087Z,3.55
2022-09-02T10:56:55.381Z,3.92
2022-09-02T10:59:42.497Z,3.22
2022-09-02T11:02:36.465Z,4.43
2022-09-02T11:08:02.474Z,5.00
2022-09-02T11:10:45.022Z,5.00
2022-09-02T11:13:17.118Z,4.30
2022-09-02T11:16:16.557Z,5.15
2022-09-02T11:19:03.565Z,3.90
2022-09-02T11:21:50.691Z,4.40
2022-09-02T11:24:35.678Z,4.60
2022-09-02T11:27:42.903Z,6.15
2022-09-02T11:30:25.990Z,6.28
2022-09-02T11:33:23.374Z,4.97
2022-09-02T11:35:52.733Z,4.72
2022-09-02T11:38:34.417Z,4.50
2022-09-02T11:41:41.651Z,4.00
2022-09-02T11:44:31.354Z,4.63
2022-09-02T11:47:25.640Z,5.10
2022-09-02T11:50:16.598Z,9.70
2022-09-02T11:53:17.882Z,6.53
2022-09-02T11:56:01.975Z,3.75
2022-09-02T11:58:50.120Z,2.88
2022-09-02T12:01:43.672Z,2.90
2022-09-02T12:07:09.227Z,1.83
2022-09-02T12:09:54.336Z,2.75
2022-09-02T12:12:42.576Z,1.65
2022-09-02T12:15:21.142Z,1.30
2022-09-02T12:17:53.055Z,2.15
2022-09-02T12:20:42.673Z,1.67
2022-09-02T12:23:51.297Z,2.13
2022-09-02T12:26:23.338Z,1.83
2022-09-02T12:28:54.195Z,2.00
2022-09-02T12:31:44.300Z,1.52
2022-09-02T12:34:31.571Z,1.80
2022-09-02T12:37:01.850Z,1.50
2022-09-02T12:39:31.552Z,2.10
2022-09-02T12:42:42.209Z,3.90
2022-09-02T12:47:52.803Z,4.78
2022-09-02T12:50:33.521Z,2.92
2022-09-02T12:53:25.627Z,3.40
2022-09-02T12:56:10.889Z,4.43
2022-09-02T12:58:49.270Z,4.68
2022-09-02T13:01:39.815Z,4.43
2022-09-02T13:04:36.648Z,3.90
2022-09-02T13:07:41.060Z,4.03
2022-09-02T13:10:16.500Z,4.32
2022-09-02T13:13:01.066Z,4.57
2022-09-02T13:15:33.223Z,5.00
2022-09-02T13:18:43.867Z,4.45
2022-09-02T13:21:28.509Z,4.75
2022-09-02T13:24:29.962Z,4.85
2022-09-02T13:27:37.787Z,5.28
2022-09-02T13:30:25.192Z,6.68
2022-09-02T13:33:08.916Z,7.20
2022-09-02T13:35:41.824Z,6.15
2022-09-02T13:38:17.453Z,5.15
2022-09-02T13:40:48.996Z,4.43
2022-09-02T13:43:21.436Z,4.50
2022-09-02T13:45:55.725Z,4.30
2022-09-02T13:48:35.209Z,4.32
2022-09-02T13:51:17.469Z,4.28
2022-09-02T13:54:22.198Z,5.03
2022-09-02T13:56:41.765Z,5.05
2022-09-02T13:59:11.265Z,5.18
2022-09-02T14:01:43.327Z,4.50
2022-09-02T14:04:16.586Z,4.80
2022-09-02T14:06:49.050Z,5.53
2022-09-02T14:09:31.288Z,5.38
2022-09-02T14:12:02.077Z,4.45
2022-09-02T14:14:31.834Z,4.05
2022-09-02T14:17:21.413Z,4.40
2022-09-02T14:19:51.271Z,4.63
2022-09-02T14:22:31.251Z,4.38
2022-09-02T14:25:00.352Z,4.43
2022-09-02T14:27:29.460Z,4.35
2022-09-02T14:30:00.160Z,5.82
2022-09-02T14:32:30.599Z,5.90
2022-09-02T14:35:19.617Z,5.63
2022-09-02T14:37:57.205Z,4.90
2022-09-02T14:40:41.038Z,4.75
2022-09-02T14:43:16.447Z,4.40
2022-09-02T14:45:50.190Z,4.55
2022-09-02T14:48:28.623Z,3.63
2022-09-02T14:51:03.711Z,3.05
2022-09-02T14:53:33.924Z,4.75
2022-09-02T14:56:03.477Z,3.60
2022-09-02T14:58:33.012Z,3.65
2022-09-02T15:01:03.490Z,4.50
2022-09-02T15:03:38.406Z,3.85
2022-09-02T15:06:09.897Z,4.28
2022-09-02T15:08:44.596Z,4.70
2022-09-02T15:11:17.732Z,3.78
2022-09-02T15:13:47.062Z,5.10
2022-09-02T15:16:16.944Z,3.80
2022-09-02T15:18:46.257Z,4.50
2022-09-02T15:21:15.932Z,7.22
2022-09-02T15:23:50.480Z,4.47
2022-09-02T15:26:20.557Z,4.85
2022-09-02T15:28:50.222Z,4.40
2022-09-02T15:31:19.580Z,4.45
2022-09-02T15:33:54.613Z,8.40
2022-09-02T15:36:26.163Z,7.80
2022-09-02T15:38:55.887Z,5.90
2022-09-02T15:41:27.698Z,7.30
2022-09-02T15:43:57.169Z,3.28
2022-09-02T15:46:32.358Z,3.83
2022-09-02T15:49:07.601Z,4.65
2022-09-02T15:51:41.706Z,4.80
2022-09-02T15:54:15.516Z,4.10
2022-09-02T15:56:48.327Z,4.15
2022-09-02T15:59:22.109Z,4.30
2022-09-02T16:04:22.977Z,4.75
2022-09-02T16:06:53.738Z,4.32
2022-09-02T16:09:23.139Z,5.22
2022-09-02T16:11:57.068Z,4.93
2022-09-02T16:14:27.573Z,4.00
2022-09-02T16:16:58.430Z,3.55
2022-09-02T16:19:30.384Z,4.03
2022-09-02T16:22:00.148Z,3.85
2022-09-02T16:24:29.826Z,5.15
2022-09-02T16:26:59.308Z,4.80
2022-09-02T16:29:28.896Z,4.90
2022-09-02T16:34:50.201Z,5.55
2022-09-02T16:37:20.024Z,4.88
2022-09-02T16:39:49.376Z,5.32
2022-09-02T16:42:18.742Z,6.00
2022-09-02T16:44:51.449Z,5.40
2022-09-02T16:47:21.423Z,5.70
2022-09-02T16:49:51.345Z,5.35
2022-09-02T16:52:20.709Z,5.85
2022-09-02T16:54:50.833Z,5.75
2022-09-02T16:57:20.199Z,6.20
2022-09-02T16:59:50.488Z,5.15
2022-09-02T17:02:20.223Z,4.45
2022-09-02T17:04:49.533Z,4.57
2022-09-02T17:07:18.839Z,5.35
2022-09-02T17:09:48.213Z,4.68
2022-09-02T17:12:17.495Z,4.43
2022-09-02T17:14:47.242Z,4.82
2022-09-02T17:17:18.259Z,5.45
2022-09-02T17:19:47.644Z,5.18
2022-09-02T17:22:17.014Z,3.90
2022-09-02T17:24:47.815Z,4.78
2022-09-02T17:27:19.961Z,4.45
2022-09-02T17:29:49.978Z,4.22
2022-09-02T17:32:20.912Z,4.70
2022-09-02T17:34:52.060Z,4.15
2022-09-02T17:37:23.317Z,4.13
2022-09-02T17:39:52.725Z,3.95
2022-09-02T17:42:24.828Z,3.85
2022-09-02T17:44:54.292Z,3.22
2022-09-02T17:47:25.306Z,3.05
2022-09-02T17:49:54.700Z,3.88
2022-09-02T17:52:25.809Z,3.35
2022-09-02T17:54:55.644Z,2.88
2022-09-02T17:57:30.691Z,3.42
2022-09-02T18:00:11.855Z,3.17
2022-09-02T18:02:43.640Z,3.15
2022-09-02T18:05:29.143Z,3.40
2022-09-02T18:08:04.744Z,3.15
2022-09-02T18:10:39.149Z,3.60
2022-09-02T18:13:17.414Z,3.13
2022-09-02T18:16:10.778Z,3.15
2022-09-02T18:18:50.873Z,3.33
2022-09-02T18:21:44.886Z,3.75
2022-09-02T18:24:14.095Z,3.25
2022-09-02T18:27:09.332Z,3.15
2022-09-02T18:30:00.340Z,3.45
2022-09-02T18:32:53.856Z,3.25
2022-09-02T18:36:19.577Z,3.75
2022-09-02T18:38:48.569Z,3.53
2022-09-02T18:41:32.371Z,3.10
2022-09-02T18:44:16.691Z,2.95
2022-09-02T18:47:18.086Z,4.05
2022-09-02T18:49:47.702Z,3.72
2022-09-02T18:52:17.385Z,3.85
2022-09-02T18:54:52.493Z,3.10
2022-09-02T18:57:21.529Z,3.08
2022-09-02T19:00:08.553Z,3.78
2022-09-02T19:03:02.153Z,3.40
2022-09-02T19:05:39.160Z,3.97
2022-09-02T19:08:39.057Z,4.18
2022-09-02T19:11:13.931Z,4.00
2022-09-02T19:13:49.327Z,3.75
2022-09-02T19:16:29.086Z,3.42
2022-09-02T19:18:58.167Z,3.17
2022-09-02T19:21:49.147Z,3.90
2022-09-02T19:24:26.620Z,4.13
2022-09-02T19:27:03.367Z,3.80
2022-09-02T19:29:37.833Z,3.35
2022-09-02T19:32:07.523Z,4.18
2022-09-02T19:34:41.797Z,4.22
2022-09-02T19:37:14.618Z,3.67
2022-09-02T19:39:43.847Z,3.72
2022-09-02T19:42:13.130Z,4.28
2022-09-02T19:44:42.231Z,4.07
2022-09-02T19:48:02.790Z,4.53
2022-09-02T19:50:03.978Z,3.45
2022-09-02T19:52:38.286Z,4.53
2022-09-02T19:55:08.456Z,4.13
2022-09-02T19:57:38.323Z,4.07
2022-09-02T20:00:09.346Z,3.78
2022-09-02T20:02:41.289Z,3.45
2022-09-02T20:05:12.703Z,3.97
2022-09-02T20:07:42.480Z,4.97
2022-09-02T20:10:12.174Z,3.60
2022-09-02T20:12:41.542Z,4.20
2022-09-02T20:15:11.374Z,4.30
2022-09-02T20:17:44.366Z,4.35
2022-09-02T20:20:23.899Z,4.38
2022-09-02T20:22:59.222Z,3.90
2022-09-02T20:25:50.949Z,4.05
2022-09-02T20:28:46.097Z,4.90
2022-09-02T20:31:30.602Z,4.05
2022-09-02T20:34:29.233Z,4.40
2022-09-02T20:37:38.729Z,4.38
2022-09-02T20:40:13.290Z,3.20
2022-09-02T20:42:59.165Z,3.80
2022-09-02T20:46:12.722Z,4.07
2022-09-02T20:48:54.900Z,4.05
2022-09-02T20:51:38.596Z,4.15
2022-09-02T20:54:13.952Z,4.70
2022-09-02T20:56:55.125Z,4.13
2022-09-02T20:59:45.105Z,4.00
2022-09-02T21:02:18.161Z,3.45
2022-09-02T21:04:57.491Z,4.23
2022-09-02T21:07:34.004Z,3.70
2022-09-02T21:10:17.993Z,4.47
2022-09-02T21:13:10.833Z,4.05
2022-09-02T21:15:51.523Z,4.07
2022-09-02T21:18:34.809Z,4.07
2022-09-02T21:21:15.753Z,4.38
2022-09-02T21:24:04.761Z,4.32
2022-09-02T21:27:27.119Z,4.30
2022-09-02T21:30:04.629Z,4.05
2022-09-02T21:32:39.021Z,4.22
2022-09-02T21:35:23.384Z,4.30
2022-09-02T21:38:00.448Z,4.00
2022-09-02T21:40:46.158Z,3.80
2022-09-02T21:43:22.182Z,4.18
2022-09-02T21:45:59.971Z,4.40
2022-09-02T21:48:48.607Z,4.10
2022-09-02T21:51:37.712Z,4.40
2022-09-02T21:54:26.339Z,3.38
2022-09-02T21:57:20.305Z,3.67
2022-09-02T22:00:19.662Z,4.93
2022-09-02T22:03:17.417Z,6.22
2022-09-02T22:05:59.335Z,5.45
2022-09-02T22:08:53.042Z,5.68
2022-09-02T22:11:44.951Z,4.80
2022-09-02T22:14:49.302Z,4.28
2022-09-02T22:17:31.368Z,4.68
2022-09-02T22:20:03.847Z,3.88
2022-09-02T22:22:37.316Z,4.22
2022-09-02T22:25:07.356Z,3.63
2022-09-02T22:27:45.130Z,4.30
2022-09-02T22:30:19.181Z,4.35
2022-09-02T22:33:12.280Z,4.40
2022-09-02T22:36:21.537Z,5.00
2022-09-02T22:38:51.804Z,4.78
2022-09-02T22:41:24.896Z,4.10
2022-09-02T22:44:03.929Z,4.30
2022-09-02T22:47:19.874Z,5.38
2022-09-02T22:50:12.929Z,6.75
2022-09-02T22:52:47.844Z,5.35
2022-09-02T22:55:21.741Z,4.60
2022-09-02T22:57:54.199Z,5.22
2022-09-02T23:00:27.642Z,5.53
2022-09-02T23:03:26.633Z,5.60
2022-09-02T23:05:58.782Z,6.45
2022-09-02T23:08:28.705Z,5.05
2022-09-02T23:11:12.714Z,5.43
2022-09-02T23:14:10.160Z,4.57
2022-09-02T23:17:07.934Z,4.70
2022-09-02T23:20:03.135Z,4.82
2022-09-02T23:23:10.486Z,4.80
2022-09-02T23:26:16.962Z,4.78
2022-09-02T23:29:27.625Z,5.22
2022-09-02T23:32:31.489Z,5.18
2022-09-02T23:35:27.181Z,5.43
2022-09-02T23:38:02.383Z,5.30
2022-09-02T23:40:44.195Z,7.43
2022-09-02T23:43:19.614Z,4.70
2022-09-02T23:45:49.442Z,7.35
2022-09-02T23:48:44.178Z,6.07
2022-09-02T23:51:17.445Z,4.95
2022-09-02T23:53:59.767Z,4.63
2022-09-02T23:56:53.198Z,5.35
2022-09-02T23:59:45.684Z,4.80
